sensor_id;sensor_type;location;lat;lon;timestamp;temperature;humidity
35127;DHT22;21300;52.006;5.798;2022-07-04T00:00:50;19.10;64.60
35127;DHT22;21300;52.006;5.798;2022-07-04T00:03:16;19.10;64.70
35127;DHT22;21300;52.006;5.798;2022-07-04T00:05:41;19.10;64.90
35127;DHT22;21300;52.006;5.798;2022-07-04T00:08:07;19.10;64.90
35127;DHT22;21300;52.006;5.798;2022-07-04T00:10:33;19.10;65.00
35127;DHT22;21300;52.006;5.798;2022-07-04T00:12:58;19.00;65.00
35127;DHT22;21300;52.006;5.798;2022-07-04T00:15:24;19.00;65.10
35127;DHT22;21300;52.006;5.798;2022-07-04T00:17:50;18.90;65.10
35127;DHT22;21300;52.006;5.798;2022-07-04T00:20:16;18.90;65.30
35127;DHT22;21300;52.006;5.798;2022-07-04T00:22:42;18.90;65.30
35127;DHT22;21300;52.006;5.798;2022-07-04T00:25:08;18.80;65.40
35127;DHT22;21300;52.006;5.798;2022-07-04T00:27:33;18.80;66.30
35127;DHT22;21300;52.006;5.798;2022-07-04T00:29:59;18.80;65.50
35127;DHT22;21300;52.006;5.798;2022-07-04T00:32:25;18.70;65.60
35127;DHT22;21300;52.006;5.798;2022-07-04T00:34:50;18.70;65.60
35127;DHT22;21300;52.006;5.798;2022-07-04T00:37:16;18.70;65.80
35127;DHT22;21300;52.006;5.798;2022-07-04T00:39:42;18.70;65.80
35127;DHT22;21300;52.006;5.798;2022-07-04T00:42:08;18.60;65.80
35127;DHT22;21300;52.006;5.798;2022-07-04T00:44:34;18.60;66.00
35127;DHT22;21300;52.006;5.798;2022-07-04T00:47:05;18.60;66.00
35127;DHT22;21300;52.006;5.798;2022-07-04T00:49:31;18.60;66.10
35127;DHT22;21300;52.006;5.798;2022-07-04T00:51:58;18.50;66.10
35127;DHT22;21300;52.006;5.798;2022-07-04T00:54:29;18.50;66.10
35127;DHT22;21300;52.006;5.798;2022-07-04T00:56:56;18.50;66.30
35127;DHT22;21300;52.006;5.798;2022-07-04T00:59:22;18.40;66.30
35127;DHT22;21300;52.006;5.798;2022-07-04T01:01:48;18.40;66.40
35127;DHT22;21300;52.006;5.798;2022-07-04T01:04:14;18.40;66.40
35127;DHT22;21300;52.006;5.798;2022-07-04T01:06:40;18.30;66.40
35127;DHT22;21300;52.006;5.798;2022-07-04T01:09:05;18.30;66.40
35127;DHT22;21300;52.006;5.798;2022-07-04T01:11:31;18.30;66.50
35127;DHT22;21300;52.006;5.798;2022-07-04T01:13:58;18.30;66.60
35127;DHT22;21300;52.006;5.798;2022-07-04T01:16:27;18.30;66.70
35127;DHT22;21300;52.006;5.798;2022-07-04T01:18:54;18.20;66.60
35127;DHT22;21300;52.006;5.798;2022-07-04T01:21:20;18.20;66.70
35127;DHT22;21300;52.006;5.798;2022-07-04T01:23:47;18.20;66.70
35127;DHT22;21300;52.006;5.798;2022-07-04T01:26:12;18.10;66.80
35127;DHT22;21300;52.006;5.798;2022-07-04T01:28:39;18.10;66.80
35127;DHT22;21300;52.006;5.798;2022-07-04T01:31:05;18.00;66.80
35127;DHT22;21300;52.006;5.798;2022-07-04T01:33:31;18.00;66.90
35127;DHT22;21300;52.006;5.798;2022-07-04T01:35:57;18.00;66.90
35127;DHT22;21300;52.006;5.798;2022-07-04T01:38:23;18.00;66.90
35127;DHT22;21300;52.006;5.798;2022-07-04T01:40:49;18.00;67.00
35127;DHT22;21300;52.006;5.798;2022-07-04T01:43:14;17.90;67.00
35127;DHT22;21300;52.006;5.798;2022-07-04T01:45:40;17.90;67.00
35127;DHT22;21300;52.006;5.798;2022-07-04T01:48:10;17.90;67.10
35127;DHT22;21300;52.006;5.798;2022-07-04T01:50:36;17.90;67.10
35127;DHT22;21300;52.006;5.798;2022-07-04T01:53:02;17.80;67.20
35127;DHT22;21300;52.006;5.798;2022-07-04T01:55:29;17.80;67.20
35127;DHT22;21300;52.006;5.798;2022-07-04T01:57:55;17.80;67.30
35127;DHT22;21300;52.006;5.798;2022-07-04T02:00:20;17.70;67.30
35127;DHT22;21300;52.006;5.798;2022-07-04T02:03:05;17.70;67.30
35127;DHT22;21300;52.006;5.798;2022-07-04T02:05:30;17.70;67.40
35127;DHT22;21300;52.006;5.798;2022-07-04T02:07:56;17.60;67.40
35127;DHT22;21300;52.006;5.798;2022-07-04T02:10:22;17.60;67.40
35127;DHT22;21300;52.006;5.798;2022-07-04T02:12:48;17.60;67.60
35127;DHT22;21300;52.006;5.798;2022-07-04T02:17:59;17.60;67.60
35127;DHT22;21300;52.006;5.798;2022-07-04T02:20:25;17.50;67.60
35127;DHT22;21300;52.006;5.798;2022-07-04T02:22:51;17.50;67.60
35127;DHT22;21300;52.006;5.798;2022-07-04T02:25:17;17.40;67.60
35127;DHT22;21300;52.006;5.798;2022-07-04T02:27:43;17.40;67.70
35127;DHT22;21300;52.006;5.798;2022-07-04T02:30:09;17.40;67.70
35127;DHT22;21300;52.006;5.798;2022-07-04T02:32:37;17.40;67.70
35127;DHT22;21300;52.006;5.798;2022-07-04T02:35:03;17.40;67.80
35127;DHT22;21300;52.006;5.798;2022-07-04T02:37:29;17.30;67.70
35127;DHT22;21300;52.006;5.798;2022-07-04T02:39:55;17.40;67.80
35127;DHT22;21300;52.006;5.798;2022-07-04T02:42:20;17.30;67.80
35127;DHT22;21300;52.006;5.798;2022-07-04T02:44:46;17.30;67.90
35127;DHT22;21300;52.006;5.798;2022-07-04T02:47:13;17.20;67.80
35127;DHT22;21300;52.006;5.798;2022-07-04T02:49:38;17.20;67.90
35127;DHT22;21300;52.006;5.798;2022-07-04T02:52:04;17.20;68.00
35127;DHT22;21300;52.006;5.798;2022-07-04T02:54:30;17.20;67.90
35127;DHT22;21300;52.006;5.798;2022-07-04T02:56:55;17.20;67.90
35127;DHT22;21300;52.006;5.798;2022-07-04T02:59:21;17.10;67.90
35127;DHT22;21300;52.006;5.798;2022-07-04T03:01:47;17.10;68.00
35127;DHT22;21300;52.006;5.798;2022-07-04T03:04:12;17.10;67.90
35127;DHT22;21300;52.006;5.798;2022-07-04T03:06:38;17.10;68.20
35127;DHT22;21300;52.006;5.798;2022-07-04T03:09:05;17.10;67.90
35127;DHT22;21300;52.006;5.798;2022-07-04T03:11:31;17.00;67.90
35127;DHT22;21300;52.006;5.798;2022-07-04T03:13:57;17.00;68.10
35127;DHT22;21300;52.006;5.798;2022-07-04T03:16:23;17.00;68.10
35127;DHT22;21300;52.006;5.798;2022-07-04T03:18:48;17.00;68.10
35127;DHT22;21300;52.006;5.798;2022-07-04T03:21:14;16.90;68.10
35127;DHT22;21300;52.006;5.798;2022-07-04T03:23:39;16.90;68.20
35127;DHT22;21300;52.006;5.798;2022-07-04T03:26:05;16.90;68.20
35127;DHT22;21300;52.006;5.798;2022-07-04T03:28:31;16.90;68.20
35127;DHT22;21300;52.006;5.798;2022-07-04T03:30:56;16.80;68.20
35127;DHT22;21300;52.006;5.798;2022-07-04T03:33:22;16.80;68.10
35127;DHT22;21300;52.006;5.798;2022-07-04T03:35:47;16.80;68.40
35127;DHT22;21300;52.006;5.798;2022-07-04T03:38:13;16.80;69.20
35127;DHT22;21300;52.006;5.798;2022-07-04T03:40:39;16.70;68.30
35127;DHT22;21300;52.006;5.798;2022-07-04T03:43:05;16.80;68.40
35127;DHT22;21300;52.006;5.798;2022-07-04T03:45:33;16.80;68.40
35127;DHT22;21300;52.006;5.798;2022-07-04T03:47:59;16.70;68.40
35127;DHT22;21300;52.006;5.798;2022-07-04T03:50:25;16.70;68.40
35127;DHT22;21300;52.006;5.798;2022-07-04T03:52:51;16.60;68.50
35127;DHT22;21300;52.006;5.798;2022-07-04T03:55:17;16.60;68.40
35127;DHT22;21300;52.006;5.798;2022-07-04T03:57:42;16.60;68.60
35127;DHT22;21300;52.006;5.798;2022-07-04T04:00:08;16.60;68.60
35127;DHT22;21300;52.006;5.798;2022-07-04T04:02:36;16.60;68.70
35127;DHT22;21300;52.006;5.798;2022-07-04T04:05:03;16.60;68.60
35127;DHT22;21300;52.006;5.798;2022-07-04T04:07:47;16.50;68.60
35127;DHT22;21300;52.006;5.798;2022-07-04T04:10:13;16.50;68.70
35127;DHT22;21300;52.006;5.798;2022-07-04T04:12:38;16.50;68.60
35127;DHT22;21300;52.006;5.798;2022-07-04T04:15:04;16.50;68.70
35127;DHT22;21300;52.006;5.798;2022-07-04T04:17:30;16.40;68.30
35127;DHT22;21300;52.006;5.798;2022-07-04T04:19:55;16.20;68.40
35127;DHT22;21300;52.006;5.798;2022-07-04T04:22:21;16.00;68.80
35127;DHT22;21300;52.006;5.798;2022-07-04T04:24:47;15.80;69.20
35127;DHT22;21300;52.006;5.798;2022-07-04T04:27:12;15.70;69.90
35127;DHT22;21300;52.006;5.798;2022-07-04T04:29:38;15.60;70.40
35127;DHT22;21300;52.006;5.798;2022-07-04T04:32:04;15.60;70.70
35127;DHT22;21300;52.006;5.798;2022-07-04T04:34:29;15.60;71.60
35127;DHT22;21300;52.006;5.798;2022-07-04T04:36:55;15.70;71.10
35127;DHT22;21300;52.006;5.798;2022-07-04T04:39:21;15.70;71.60
35127;DHT22;21300;52.006;5.798;2022-07-04T04:41:46;15.70;72.20
35127;DHT22;21300;52.006;5.798;2022-07-04T04:44:12;15.70;72.20
35127;DHT22;21300;52.006;5.798;2022-07-04T04:46:38;15.70;73.30
35127;DHT22;21300;52.006;5.798;2022-07-04T04:49:03;15.70;73.90
35127;DHT22;21300;52.006;5.798;2022-07-04T04:51:29;15.80;74.00
35127;DHT22;21300;52.006;5.798;2022-07-04T04:53:54;15.90;74.00
35127;DHT22;21300;52.006;5.798;2022-07-04T04:56:20;15.90;74.20
35127;DHT22;21300;52.006;5.798;2022-07-04T04:58:46;15.90;75.00
35127;DHT22;21300;52.006;5.798;2022-07-04T05:01:12;16.00;74.40
35127;DHT22;21300;52.006;5.798;2022-07-04T05:03:38;16.10;74.20
35127;DHT22;21300;52.006;5.798;2022-07-04T05:06:03;16.20;74.80
35127;DHT22;21300;52.006;5.798;2022-07-04T05:08:29;16.30;75.00
35127;DHT22;21300;52.006;5.798;2022-07-04T05:10:55;16.30;75.70
35127;DHT22;21300;52.006;5.798;2022-07-04T05:13:20;16.40;77.10
35127;DHT22;21300;52.006;5.798;2022-07-04T05:15:46;16.60;75.90
35127;DHT22;21300;52.006;5.798;2022-07-04T05:18:12;16.70;75.10
35127;DHT22;21300;52.006;5.798;2022-07-04T05:20:38;16.80;76.30
35127;DHT22;21300;52.006;5.798;2022-07-04T05:23:05;16.90;76.20
35127;DHT22;21300;52.006;5.798;2022-07-04T05:25:31;17.10;75.80
35127;DHT22;21300;52.006;5.798;2022-07-04T05:27:58;17.20;75.60
35127;DHT22;21300;52.006;5.798;2022-07-04T05:30:23;17.30;75.90
35127;DHT22;21300;52.006;5.798;2022-07-04T05:32:49;17.40;76.20
35127;DHT22;21300;52.006;5.798;2022-07-04T05:35:15;17.50;75.70
35127;DHT22;21300;52.006;5.798;2022-07-04T05:37:40;17.50;76.00
35127;DHT22;21300;52.006;5.798;2022-07-04T05:40:06;17.60;76.00
35127;DHT22;21300;52.006;5.798;2022-07-04T05:42:34;17.60;76.00
35127;DHT22;21300;52.006;5.798;2022-07-04T05:45:03;17.70;76.20
35127;DHT22;21300;52.006;5.798;2022-07-04T05:47:29;17.80;76.20
35127;DHT22;21300;52.006;5.798;2022-07-04T05:49:55;17.90;76.30
35127;DHT22;21300;52.006;5.798;2022-07-04T05:52:20;18.00;75.90
35127;DHT22;21300;52.006;5.798;2022-07-04T05:54:46;17.90;76.30
35127;DHT22;21300;52.006;5.798;2022-07-04T05:57:12;17.90;77.30
35127;DHT22;21300;52.006;5.798;2022-07-04T05:59:37;17.90;78.00
35127;DHT22;21300;52.006;5.798;2022-07-04T06:02:03;17.80;78.40
35127;DHT22;21300;52.006;5.798;2022-07-04T06:04:29;17.80;77.70
35127;DHT22;21300;52.006;5.798;2022-07-04T06:06:54;17.80;78.80
35127;DHT22;21300;52.006;5.798;2022-07-04T06:09:20;18.00;79.30
35127;DHT22;21300;52.006;5.798;2022-07-04T06:11:46;18.10;78.00
35127;DHT22;21300;52.006;5.798;2022-07-04T06:14:11;18.20;77.70
35127;DHT22;21300;52.006;5.798;2022-07-04T06:16:37;18.30;77.60
35127;DHT22;21300;52.006;5.798;2022-07-04T06:19:03;18.40;77.00
35127;DHT22;21300;52.006;5.798;2022-07-04T06:21:28;18.50;76.00
35127;DHT22;21300;52.006;5.798;2022-07-04T06:23:54;18.60;75.30
35127;DHT22;21300;52.006;5.798;2022-07-04T06:26:20;18.70;74.60
35127;DHT22;21300;52.006;5.798;2022-07-04T06:28:45;18.70;73.90
35127;DHT22;21300;52.006;5.798;2022-07-04T06:31:12;18.80;73.30
35127;DHT22;21300;52.006;5.798;2022-07-04T06:33:37;18.80;73.00
35127;DHT22;21300;52.006;5.798;2022-07-04T06:36:24;18.80;72.60
35127;DHT22;21300;52.006;5.798;2022-07-04T06:38:49;18.90;72.30
35127;DHT22;21300;52.006;5.798;2022-07-04T06:41:15;18.90;72.10
35127;DHT22;21300;52.006;5.798;2022-07-04T06:43:41;18.90;71.70
35127;DHT22;21300;52.006;5.798;2022-07-04T06:46:07;18.90;71.40
35127;DHT22;21300;52.006;5.798;2022-07-04T06:48:32;19.00;71.20
35127;DHT22;21300;52.006;5.798;2022-07-04T06:50:58;19.00;71.00
35127;DHT22;21300;52.006;5.798;2022-07-04T06:53:24;19.00;70.70
35127;DHT22;21300;52.006;5.798;2022-07-04T06:55:50;19.00;70.50
35127;DHT22;21300;52.006;5.798;2022-07-04T06:58:15;19.00;70.20
35127;DHT22;21300;52.006;5.798;2022-07-04T07:00:41;19.00;70.10
35127;DHT22;21300;52.006;5.798;2022-07-04T07:03:07;19.10;70.00
35127;DHT22;21300;52.006;5.798;2022-07-04T07:05:33;19.10;70.00
35127;DHT22;21300;52.006;5.798;2022-07-04T07:08:04;19.10;69.80
35127;DHT22;21300;52.006;5.798;2022-07-04T07:10:30;19.10;69.70
35127;DHT22;21300;52.006;5.798;2022-07-04T07:12:58;19.10;69.50
35127;DHT22;21300;52.006;5.798;2022-07-04T07:15:24;19.10;69.50
35127;DHT22;21300;52.006;5.798;2022-07-04T07:17:49;19.10;69.30
35127;DHT22;21300;52.006;5.798;2022-07-04T07:20:15;19.10;69.20
35127;DHT22;21300;52.006;5.798;2022-07-04T07:22:41;19.10;69.20
35127;DHT22;21300;52.006;5.798;2022-07-04T07:25:10;19.20;69.30
35127;DHT22;21300;52.006;5.798;2022-07-04T07:27:37;19.20;69.30
35127;DHT22;21300;52.006;5.798;2022-07-04T07:30:05;19.20;69.20
35127;DHT22;21300;52.006;5.798;2022-07-04T07:32:31;19.20;69.10
35127;DHT22;21300;52.006;5.798;2022-07-04T07:34:57;19.20;69.10
35127;DHT22;21300;52.006;5.798;2022-07-04T07:37:22;19.20;69.00
35127;DHT22;21300;52.006;5.798;2022-07-04T07:39:49;19.30;69.10
35127;DHT22;21300;52.006;5.798;2022-07-04T07:42:16;19.20;68.90
35127;DHT22;21300;52.006;5.798;2022-07-04T07:44:41;19.30;68.90
35127;DHT22;21300;52.006;5.798;2022-07-04T07:47:07;19.30;68.80
35127;DHT22;21300;52.006;5.798;2022-07-04T07:49:33;19.30;68.80
35127;DHT22;21300;52.006;5.798;2022-07-04T07:51:58;19.30;68.90
35127;DHT22;21300;52.006;5.798;2022-07-04T07:54:24;19.30;68.70
35127;DHT22;21300;52.006;5.798;2022-07-04T07:56:50;19.40;68.80
35127;DHT22;21300;52.006;5.798;2022-07-04T07:59:16;19.40;68.90
35127;DHT22;21300;52.006;5.798;2022-07-04T08:01:42;19.40;68.70
35127;DHT22;21300;52.006;5.798;2022-07-04T08:04:08;19.40;68.60
35127;DHT22;21300;52.006;5.798;2022-07-04T08:06:52;19.40;68.50
35127;DHT22;21300;52.006;5.798;2022-07-04T08:09:17;19.50;68.80
35127;DHT22;21300;52.006;5.798;2022-07-04T08:11:43;19.50;68.60
35127;DHT22;21300;52.006;5.798;2022-07-04T08:14:09;19.50;68.60
35127;DHT22;21300;52.006;5.798;2022-07-04T08:16:35;19.60;68.50
35127;DHT22;21300;52.006;5.798;2022-07-04T08:19:01;19.60;68.50
35127;DHT22;21300;52.006;5.798;2022-07-04T08:21:27;19.60;68.40
35127;DHT22;21300;52.006;5.798;2022-07-04T08:23:53;19.70;68.50
35127;DHT22;21300;52.006;5.798;2022-07-04T08:26:19;19.70;68.60
35127;DHT22;21300;52.006;5.798;2022-07-04T08:28:44;19.70;69.00
35127;DHT22;21300;52.006;5.798;2022-07-04T08:31:10;19.80;68.70
35127;DHT22;21300;52.006;5.798;2022-07-04T08:33:36;19.80;68.70
35127;DHT22;21300;52.006;5.798;2022-07-04T08:36:03;19.80;68.80
35127;DHT22;21300;52.006;5.798;2022-07-04T08:38:29;19.80;68.60
35127;DHT22;21300;52.006;5.798;2022-07-04T08:40:58;19.90;68.50
35127;DHT22;21300;52.006;5.798;2022-07-04T08:43:25;19.90;68.90
35127;DHT22;21300;52.006;5.798;2022-07-04T08:45:54;19.90;68.90
35127;DHT22;21300;52.006;5.798;2022-07-04T08:48:24;19.90;69.00
35127;DHT22;21300;52.006;5.798;2022-07-04T08:50:55;20.00;68.80
35127;DHT22;21300;52.006;5.798;2022-07-04T08:53:22;20.00;69.10
35127;DHT22;21300;52.006;5.798;2022-07-04T08:55:51;20.00;68.90
35127;DHT22;21300;52.006;5.798;2022-07-04T08:58:38;20.10;69.00
35127;DHT22;21300;52.006;5.798;2022-07-04T09:01:06;20.10;68.80
35127;DHT22;21300;52.006;5.798;2022-07-04T09:03:33;20.10;68.50
35127;DHT22;21300;52.006;5.798;2022-07-04T09:05:59;20.10;68.70
35127;DHT22;21300;52.006;5.798;2022-07-04T09:08:26;20.10;69.00
35127;DHT22;21300;52.006;5.798;2022-07-04T09:10:52;20.10;68.70
35127;DHT22;21300;52.006;5.798;2022-07-04T09:13:19;20.20;68.60
35127;DHT22;21300;52.006;5.798;2022-07-04T09:15:46;20.10;69.00
35127;DHT22;21300;52.006;5.798;2022-07-04T09:18:38;20.20;69.30
35127;DHT22;21300;52.006;5.798;2022-07-04T09:21:07;20.20;69.10
35127;DHT22;21300;52.006;5.798;2022-07-04T09:26:26;20.20;69.00
35127;DHT22;21300;52.006;5.798;2022-07-04T09:28:56;20.30;68.50
35127;DHT22;21300;52.006;5.798;2022-07-04T09:31:27;20.30;68.70
35127;DHT22;21300;52.006;5.798;2022-07-04T09:34:04;20.30;68.50
35127;DHT22;21300;52.006;5.798;2022-07-04T09:36:35;20.30;68.40
35127;DHT22;21300;52.006;5.798;2022-07-04T09:39:23;20.40;68.30
35127;DHT22;21300;52.006;5.798;2022-07-04T09:41:56;20.40;68.40
35127;DHT22;21300;52.006;5.798;2022-07-04T09:44:27;20.40;68.50
35127;DHT22;21300;52.006;5.798;2022-07-04T09:46:54;20.40;68.10
35127;DHT22;21300;52.006;5.798;2022-07-04T09:49:20;20.40;68.40
35127;DHT22;21300;52.006;5.798;2022-07-04T09:51:48;20.40;68.10
35127;DHT22;21300;52.006;5.798;2022-07-04T09:54:25;20.50;68.20
35127;DHT22;21300;52.006;5.798;2022-07-04T09:56:58;20.50;68.20
35127;DHT22;21300;52.006;5.798;2022-07-04T09:59:24;20.50;68.00
35127;DHT22;21300;52.006;5.798;2022-07-04T10:02:09;20.50;67.90
35127;DHT22;21300;52.006;5.798;2022-07-04T10:04:51;20.60;68.00
35127;DHT22;21300;52.006;5.798;2022-07-04T10:07:31;20.60;68.00
35127;DHT22;21300;52.006;5.798;2022-07-04T10:09:57;20.60;67.90
35127;DHT22;21300;52.006;5.798;2022-07-04T10:12:28;20.70;67.80
35127;DHT22;21300;52.006;5.798;2022-07-04T10:14:55;20.70;67.60
35127;DHT22;21300;52.006;5.798;2022-07-04T10:17:22;20.70;67.60
35127;DHT22;21300;52.006;5.798;2022-07-04T10:19:47;20.70;67.60
35127;DHT22;21300;52.006;5.798;2022-07-04T10:22:16;20.80;67.60
35127;DHT22;21300;52.006;5.798;2022-07-04T10:24:43;20.80;67.50
35127;DHT22;21300;52.006;5.798;2022-07-04T10:27:09;20.90;67.40
35127;DHT22;21300;52.006;5.798;2022-07-04T10:32:21;20.90;67.30
35127;DHT22;21300;52.006;5.798;2022-07-04T10:34:46;20.90;67.30
35127;DHT22;21300;52.006;5.798;2022-07-04T10:37:12;21.00;67.10
35127;DHT22;21300;52.006;5.798;2022-07-04T10:39:57;21.00;67.10
35127;DHT22;21300;52.006;5.798;2022-07-04T10:42:24;21.10;67.00
35127;DHT22;21300;52.006;5.798;2022-07-04T10:44:50;21.10;66.90
35127;DHT22;21300;52.006;5.798;2022-07-04T10:47:24;21.10;66.80
35127;DHT22;21300;52.006;5.798;2022-07-04T10:49:51;21.20;66.80
35127;DHT22;21300;52.006;5.798;2022-07-04T10:52:17;21.20;66.80
35127;DHT22;21300;52.006;5.798;2022-07-04T10:54:44;21.30;66.70
35127;DHT22;21300;52.006;5.798;2022-07-04T11:02:23;21.30;66.30
35127;DHT22;21300;52.006;5.798;2022-07-04T11:05:09;21.40;66.40
35127;DHT22;21300;52.006;5.798;2022-07-04T11:17:51;21.60;66.00
35127;DHT22;21300;52.006;5.798;2022-07-04T11:20:22;21.60;66.00
35127;DHT22;21300;52.006;5.798;2022-07-04T11:22:48;21.60;65.80
35127;DHT22;21300;52.006;5.798;2022-07-04T11:25:14;21.70;65.80
35127;DHT22;21300;52.006;5.798;2022-07-04T11:27:41;21.70;65.80
35127;DHT22;21300;52.006;5.798;2022-07-04T11:30:08;21.70;65.60
35127;DHT22;21300;52.006;5.798;2022-07-04T11:32:35;21.70;65.60
35127;DHT22;21300;52.006;5.798;2022-07-04T11:35:04;21.80;65.60
35127;DHT22;21300;52.006;5.798;2022-07-04T11:37:30;21.80;65.50
35127;DHT22;21300;52.006;5.798;2022-07-04T11:39:57;21.80;65.40
35127;DHT22;21300;52.006;5.798;2022-07-04T11:43:03;21.90;65.20
35127;DHT22;21300;52.006;5.798;2022-07-04T11:45:47;21.90;65.00
35127;DHT22;21300;52.006;5.798;2022-07-04T11:48:23;22.00;64.90
35127;DHT22;21300;52.006;5.798;2022-07-04T11:50:49;22.00;64.90
35127;DHT22;21300;52.006;5.798;2022-07-04T11:53:16;22.00;64.50
35127;DHT22;21300;52.006;5.798;2022-07-04T11:55:55;22.00;64.50
35127;DHT22;21300;52.006;5.798;2022-07-04T11:58:24;22.00;64.60
35127;DHT22;21300;52.006;5.798;2022-07-04T12:00:50;22.10;64.30
35127;DHT22;21300;52.006;5.798;2022-07-04T12:06:01;22.20;64.30
35127;DHT22;21300;52.006;5.798;2022-07-04T12:08:27;22.20;64.30
35127;DHT22;21300;52.006;5.798;2022-07-04T12:10:53;22.30;64.30
35127;DHT22;21300;52.006;5.798;2022-07-04T12:13:18;22.20;63.80
35127;DHT22;21300;52.006;5.798;2022-07-04T12:15:47;22.30;63.50
35127;DHT22;21300;52.006;5.798;2022-07-04T12:18:28;22.30;63.50
35127;DHT22;21300;52.006;5.798;2022-07-04T12:21:19;22.30;63.50
35127;DHT22;21300;52.006;5.798;2022-07-04T12:23:52;22.40;63.50
35127;DHT22;21300;52.006;5.798;2022-07-04T12:26:18;22.40;63.30
35127;DHT22;21300;52.006;5.798;2022-07-04T12:28:43;22.40;63.30
35127;DHT22;21300;52.006;5.798;2022-07-04T12:31:09;22.40;63.30
35127;DHT22;21300;52.006;5.798;2022-07-04T12:33:36;22.50;63.10
35127;DHT22;21300;52.006;5.798;2022-07-04T12:36:03;22.50;63.20
35127;DHT22;21300;52.006;5.798;2022-07-04T12:41:14;22.60;63.60
35127;DHT22;21300;52.006;5.798;2022-07-04T12:46:08;22.70;62.70
35127;DHT22;21300;52.006;5.798;2022-07-04T12:48:36;22.60;62.40
35127;DHT22;21300;52.006;5.798;2022-07-04T12:53:49;22.70;62.70
35127;DHT22;21300;52.006;5.798;2022-07-04T12:56:30;22.80;61.30
35127;DHT22;21300;52.006;5.798;2022-07-04T12:59:08;22.80;61.70
35127;DHT22;21300;52.006;5.798;2022-07-04T13:01:35;22.80;61.90
35127;DHT22;21300;52.006;5.798;2022-07-04T13:04:02;22.80;61.80
35127;DHT22;21300;52.006;5.798;2022-07-04T13:06:28;22.80;61.70
35127;DHT22;21300;52.006;5.798;2022-07-04T13:08:55;22.90;61.90
35127;DHT22;21300;52.006;5.798;2022-07-04T13:11:22;22.90;61.60
35127;DHT22;21300;52.006;5.798;2022-07-04T13:14:06;22.90;61.70
35127;DHT22;21300;52.006;5.798;2022-07-04T13:16:32;22.90;61.40
35127;DHT22;21300;52.006;5.798;2022-07-04T13:18:58;22.90;61.20
35127;DHT22;21300;52.006;5.798;2022-07-04T13:21:24;22.90;61.10
35127;DHT22;21300;52.006;5.798;2022-07-04T13:23:49;23.00;61.10
35127;DHT22;21300;52.006;5.798;2022-07-04T13:26:15;23.00;61.00
35127;DHT22;21300;52.006;5.798;2022-07-04T13:28:41;23.00;60.80
35127;DHT22;21300;52.006;5.798;2022-07-04T13:31:07;23.00;60.80
35127;DHT22;21300;52.006;5.798;2022-07-04T13:33:32;23.00;60.70
35127;DHT22;21300;52.006;5.798;2022-07-04T13:35:58;23.00;60.60
35127;DHT22;21300;52.006;5.798;2022-07-04T13:38:24;23.00;60.20
35127;DHT22;21300;52.006;5.798;2022-07-04T13:40:50;23.00;60.20
35127;DHT22;21300;52.006;5.798;2022-07-04T13:43:16;23.00;60.20
35127;DHT22;21300;52.006;5.798;2022-07-04T13:45:42;23.10;60.00
35127;DHT22;21300;52.006;5.798;2022-07-04T13:48:10;23.10;59.90
35127;DHT22;21300;52.006;5.798;2022-07-04T13:50:36;23.10;59.90
35127;DHT22;21300;52.006;5.798;2022-07-04T13:53:07;23.10;59.90
35127;DHT22;21300;52.006;5.798;2022-07-04T13:55:33;23.10;59.80
35127;DHT22;21300;52.006;5.798;2022-07-04T13:58:03;23.10;59.70
35127;DHT22;21300;52.006;5.798;2022-07-04T14:00:29;23.10;59.70
35127;DHT22;21300;52.006;5.798;2022-07-04T14:02:55;23.10;59.70
35127;DHT22;21300;52.006;5.798;2022-07-04T14:05:21;23.10;59.50
35127;DHT22;21300;52.006;5.798;2022-07-04T14:07:47;23.20;59.70
35127;DHT22;21300;52.006;5.798;2022-07-04T14:10:13;23.10;59.70
35127;DHT22;21300;52.006;5.798;2022-07-04T14:12:39;23.10;59.50
35127;DHT22;21300;52.006;5.798;2022-07-04T14:15:05;23.20;59.30
35127;DHT22;21300;52.006;5.798;2022-07-04T14:17:31;23.10;59.20
35127;DHT22;21300;52.006;5.798;2022-07-04T14:19:57;23.10;59.20
35127;DHT22;21300;52.006;5.798;2022-07-04T14:22:22;23.20;59.00
35127;DHT22;21300;52.006;5.798;2022-07-04T14:24:48;23.20;59.10
35127;DHT22;21300;52.006;5.798;2022-07-04T14:27:14;23.20;59.10
35127;DHT22;21300;52.006;5.798;2022-07-04T14:29:39;23.20;58.70
35127;DHT22;21300;52.006;5.798;2022-07-04T14:32:07;23.20;58.90
35127;DHT22;21300;52.006;5.798;2022-07-04T14:34:32;23.20;58.80
35127;DHT22;21300;52.006;5.798;2022-07-04T14:36:58;23.20;58.50
35127;DHT22;21300;52.006;5.798;2022-07-04T14:39:24;23.20;58.60
35127;DHT22;21300;52.006;5.798;2022-07-04T14:41:49;23.20;58.40
35127;DHT22;21300;52.006;5.798;2022-07-04T14:44:16;23.20;58.30
35127;DHT22;21300;52.006;5.798;2022-07-04T14:46:41;23.20;58.10
35127;DHT22;21300;52.006;5.798;2022-07-04T14:49:08;23.20;58.20
35127;DHT22;21300;52.006;5.798;2022-07-04T14:51:33;23.20;58.20
35127;DHT22;21300;52.006;5.798;2022-07-04T14:53:59;23.20;57.90
35127;DHT22;21300;52.006;5.798;2022-07-04T14:56:24;23.20;57.80
35127;DHT22;21300;52.006;5.798;2022-07-04T14:58:50;23.20;58.00
35127;DHT22;21300;52.006;5.798;2022-07-04T15:01:16;23.20;57.90
35127;DHT22;21300;52.006;5.798;2022-07-04T15:03:41;23.30;58.00
35127;DHT22;21300;52.006;5.798;2022-07-04T15:06:07;23.30;58.00
35127;DHT22;21300;52.006;5.798;2022-07-04T15:08:32;23.30;58.10
35127;DHT22;21300;52.006;5.798;2022-07-04T15:10:58;23.30;57.90
35127;DHT22;21300;52.006;5.798;2022-07-04T15:13:24;23.20;58.00
35127;DHT22;21300;52.006;5.798;2022-07-04T15:15:49;23.30;58.00
35127;DHT22;21300;52.006;5.798;2022-07-04T15:18:15;23.30;57.60
35127;DHT22;21300;52.006;5.798;2022-07-04T15:20:40;23.30;57.60
35127;DHT22;21300;52.006;5.798;2022-07-04T15:23:24;23.30;57.40
35127;DHT22;21300;52.006;5.798;2022-07-04T15:26:09;23.30;57.30
35127;DHT22;21300;52.006;5.798;2022-07-04T15:28:34;23.30;57.30
35127;DHT22;21300;52.006;5.798;2022-07-04T15:31:00;23.30;56.80
35127;DHT22;21300;52.006;5.798;2022-07-04T15:33:26;23.30;56.90
35127;DHT22;21300;52.006;5.798;2022-07-04T15:35:53;23.30;57.20
35127;DHT22;21300;52.006;5.798;2022-07-04T15:38:20;23.30;57.20
35127;DHT22;21300;52.006;5.798;2022-07-04T15:40:46;23.30;57.20
35127;DHT22;21300;52.006;5.798;2022-07-04T15:43:12;23.40;57.30
35127;DHT22;21300;52.006;5.798;2022-07-04T15:45:38;23.30;57.00
35127;DHT22;21300;52.006;5.798;2022-07-04T15:48:04;23.40;56.70
35127;DHT22;21300;52.006;5.798;2022-07-04T15:50:30;23.40;56.80
35127;DHT22;21300;52.006;5.798;2022-07-04T15:52:55;23.40;56.90
35127;DHT22;21300;52.006;5.798;2022-07-04T15:55:21;23.40;57.20
35127;DHT22;21300;52.006;5.798;2022-07-04T15:57:47;23.40;57.10
35127;DHT22;21300;52.006;5.798;2022-07-04T16:00:13;23.40;56.90
35127;DHT22;21300;52.006;5.798;2022-07-04T16:02:40;23.40;56.80
35127;DHT22;21300;52.006;5.798;2022-07-04T16:05:06;23.40;56.90